createdAt,value
2017-08-15T00:02:10.844Z,18.30
2017-08-15T00:04:38.428Z,18.20
2017-08-15T00:07:05.959Z,18.20
2017-08-15T00:09:33.507Z,18.20
2017-08-15T00:12:01.116Z,18.10
2017-08-15T00:14:32.630Z,18.20
2017-08-15T00:17:00.128Z,18.20
2017-08-15T00:19:27.640Z,18.20
2017-08-15T00:21:55.297Z,18.30
2017-08-15T00:24:22.824Z,18.40
2017-08-15T00:26:51.116Z,18.20
2017-08-15T00:29:19.491Z,18.20
2017-08-15T00:31:47.852Z,18.10
2017-08-15T00:34:15.449Z,18.00
2017-08-15T00:36:43.082Z,18.00
2017-08-15T00:39:11.658Z,17.90
2017-08-15T00:41:39.236Z,17.90
2017-08-15T00:44:06.740Z,17.90
2017-08-15T00:46:34.257Z,17.90
2017-08-15T00:49:02.550Z,18.00
2017-08-15T00:51:30.093Z,18.00
2017-08-15T00:53:59.391Z,17.90
2017-08-15T00:56:27.756Z,17.80
2017-08-15T00:58:56.060Z,17.80
2017-08-15T01:01:23.555Z,17.80
2017-08-15T01:03:51.936Z,17.70
2017-08-15T01:06:19.432Z,17.60
2017-08-15T01:08:47.434Z,17.50
2017-08-15T01:11:14.951Z,17.50
2017-08-15T01:13:42.627Z,17.40
2017-08-15T01:16:10.155Z,17.50
2017-08-15T01:18:40.974Z,17.50
2017-08-15T01:21:08.615Z,17.50
2017-08-15T01:23:36.110Z,17.50
2017-08-15T01:26:03.620Z,17.50
2017-08-15T01:28:31.712Z,17.40
2017-08-15T01:31:04.715Z,17.30
2017-08-15T01:33:32.753Z,17.30
2017-08-15T01:36:00.455Z,17.20
2017-08-15T01:38:27.996Z,17.20
2017-08-15T01:40:55.491Z,17.20
2017-08-15T01:43:23.067Z,17.20
2017-08-15T01:45:50.581Z,17.20
2017-08-15T01:48:18.104Z,17.10
2017-08-15T01:50:45.695Z,17.10
2017-08-15T01:53:13.226Z,17.00
2017-08-15T01:55:40.782Z,17.10
2017-08-15T01:58:08.296Z,17.10
2017-08-15T02:00:35.804Z,17.10
2017-08-15T02:03:08.743Z,17.10
2017-08-15T02:05:36.324Z,17.00
2017-08-15T02:08:03.843Z,17.00
2017-08-15T02:10:31.360Z,16.90
2017-08-15T02:12:58.888Z,16.90
2017-08-15T02:15:26.450Z,16.90
2017-08-15T02:17:53.968Z,16.90
2017-08-15T02:20:25.015Z,16.80
2017-08-15T02:22:52.980Z,16.80
2017-08-15T02:25:20.479Z,16.70
2017-08-15T02:27:48.043Z,16.70
2017-08-15T02:30:15.599Z,16.70
2017-08-15T02:32:43.091Z,16.60
2017-08-15T02:35:11.336Z,16.60
2017-08-15T02:37:38.894Z,16.60
2017-08-15T02:40:06.420Z,16.60
2017-08-15T02:42:34.031Z,16.60
2017-08-15T02:45:02.255Z,16.60
2017-08-15T02:47:30.444Z,16.60
2017-08-15T02:49:59.032Z,16.50
2017-08-15T02:52:26.586Z,16.60
2017-08-15T02:54:54.108Z,16.60
2017-08-15T02:57:21.689Z,16.50
2017-08-15T02:59:49.204Z,16.50
2017-08-15T03:02:21.271Z,16.50
2017-08-15T03:04:48.827Z,16.40
2017-08-15T03:07:17.118Z,16.40
2017-08-15T03:09:44.676Z,16.40
2017-08-15T03:12:12.227Z,16.40
2017-08-15T03:14:39.781Z,16.40
2017-08-15T03:17:07.333Z,16.20
2017-08-15T03:19:34.904Z,16.20
2017-08-15T03:22:02.461Z,16.20
2017-08-15T03:24:29.989Z,16.10
2017-08-15T03:26:58.299Z,16.20
2017-08-15T03:29:25.836Z,16.20
2017-08-15T03:31:54.276Z,16.20
2017-08-15T03:34:21.824Z,16.20
2017-08-15T03:36:49.329Z,16.30
2017-08-15T03:39:16.847Z,16.20
2017-08-15T03:41:44.411Z,16.20
2017-08-15T03:44:11.933Z,16.10
2017-08-15T03:46:39.455Z,16.10
2017-08-15T03:49:07.019Z,16.10
2017-08-15T03:51:34.572Z,16.10
2017-08-15T03:54:02.128Z,16.10
2017-08-15T03:56:29.678Z,16.10
2017-08-15T03:58:58.114Z,16.00
2017-08-15T04:01:25.640Z,16.00
2017-08-15T04:03:53.200Z,16.10
2017-08-15T04:06:20.747Z,16.10
2017-08-15T04:08:49.060Z,16.00
2017-08-15T04:11:16.575Z,16.00
2017-08-15T04:13:44.296Z,16.00
2017-08-15T04:16:11.838Z,16.00
2017-08-15T04:18:42.643Z,16.00
2017-08-15T04:21:11.429Z,16.00
2017-08-15T04:23:39.003Z,16.00
2017-08-15T04:26:06.515Z,16.10
2017-08-15T04:28:34.037Z,16.00
2017-08-15T04:31:01.576Z,16.00
2017-08-15T04:33:29.157Z,16.10
2017-08-15T04:35:56.715Z,16.00
2017-08-15T04:38:24.248Z,16.00
2017-08-15T04:40:51.969Z,16.00
2017-08-15T04:43:19.543Z,16.00
2017-08-15T04:45:47.055Z,16.10
2017-08-15T04:48:14.604Z,16.10
2017-08-15T04:50:42.929Z,16.20
2017-08-15T04:53:10.575Z,16.10
2017-08-15T04:55:38.191Z,16.20
2017-08-15T04:58:05.720Z,16.30
2017-08-15T05:00:33.232Z,16.40
2017-08-15T05:03:00.831Z,16.50
2017-08-15T05:05:28.413Z,16.50
2017-08-15T05:07:55.924Z,16.70
2017-08-15T05:10:23.472Z,16.80
2017-08-15T05:12:50.996Z,16.90
2017-08-15T05:15:18.532Z,17.10
2017-08-15T05:17:46.069Z,17.30
2017-08-15T05:20:13.617Z,17.30
2017-08-15T05:22:45.704Z,17.50
2017-08-15T05:25:13.254Z,17.70
2017-08-15T05:27:40.755Z,17.70
2017-08-15T05:30:08.303Z,17.80
2017-08-15T05:32:35.883Z,17.80
2017-08-15T05:35:06.692Z,18.00
2017-08-15T05:37:34.236Z,18.10
2017-08-15T05:40:01.769Z,18.20
2017-08-15T05:42:29.370Z,18.40
2017-08-15T05:44:57.439Z,18.40
2017-08-15T05:47:25.019Z,18.60
2017-08-15T05:49:55.648Z,18.70
2017-08-15T05:52:27.199Z,18.80
2017-08-15T05:54:55.615Z,18.80
2017-08-15T05:57:23.299Z,18.90
2017-08-15T05:59:50.800Z,18.90
2017-08-15T06:02:18.303Z,18.90
2017-08-15T06:04:45.815Z,19.00
2017-08-15T06:07:13.323Z,19.20
2017-08-15T06:09:40.827Z,19.40
2017-08-15T06:12:08.993Z,19.50
2017-08-15T06:14:36.568Z,19.70
2017-08-15T06:17:04.067Z,19.70
2017-08-15T06:19:31.728Z,19.80
2017-08-15T06:22:02.532Z,20.00
2017-08-15T06:24:30.036Z,20.20
2017-08-15T06:26:57.550Z,20.30
2017-08-15T06:29:25.047Z,20.40
2017-08-15T06:31:52.583Z,20.50
2017-08-15T06:34:20.126Z,20.60
2017-08-15T06:36:47.632Z,20.70
2017-08-15T06:39:20.255Z,20.80
2017-08-15T06:41:47.775Z,21.00
2017-08-15T06:44:15.976Z,21.00
2017-08-15T06:46:43.547Z,21.10
2017-08-15T06:49:11.083Z,21.30
2017-08-15T06:51:39.351Z,21.70
2017-08-15T06:54:10.903Z,21.60
2017-08-15T06:56:38.402Z,21.80
2017-08-15T06:59:05.951Z,21.90
2017-08-15T07:01:33.451Z,22.10
2017-08-15T07:04:00.999Z,22.20
2017-08-15T07:06:28.499Z,22.40
2017-08-15T07:08:56.087Z,22.60
2017-08-15T07:11:23.595Z,22.70
2017-08-15T07:13:51.099Z,22.90
2017-08-15T07:16:19.311Z,23.00
2017-08-15T07:18:46.811Z,23.10
2017-08-15T07:21:14.322Z,23.30
2017-08-15T07:23:41.855Z,23.50
2017-08-15T07:26:10.265Z,23.70
2017-08-15T07:28:37.797Z,23.70
2017-08-15T07:31:06.087Z,24.10
2017-08-15T07:33:33.587Z,24.10
2017-08-15T07:36:01.136Z,24.10
2017-08-15T07:38:32.379Z,24.20
2017-08-15T07:40:59.930Z,24.40
2017-08-15T07:43:27.948Z,24.50
2017-08-15T07:45:55.457Z,24.70
2017-08-15T07:48:22.959Z,25.40
2017-08-15T07:50:51.431Z,26.50
2017-08-15T07:53:20.597Z,28.10
2017-08-15T07:55:48.119Z,28.90
2017-08-15T07:58:16.399Z,30.50
2017-08-15T08:00:43.912Z,30.40
2017-08-15T08:03:11.500Z,31.30
2017-08-15T08:05:39.068Z,31.00
2017-08-15T08:08:06.607Z,30.80
2017-08-15T08:10:38.062Z,31.80
2017-08-15T08:13:05.600Z,32.50
2017-08-15T08:15:33.107Z,32.60
2017-08-15T08:18:00.660Z,32.40
2017-08-15T08:20:28.192Z,32.10
2017-08-15T08:22:59.948Z,31.80
2017-08-15T08:25:28.137Z,32.70
2017-08-15T08:41:20.957Z,34.20
2017-08-15T08:43:48.499Z,34.00
2017-08-15T08:46:16.284Z,33.80
2017-08-15T08:48:43.879Z,34.50
2017-08-15T08:51:11.430Z,35.60
2017-08-15T08:53:38.931Z,35.00
2017-08-15T08:56:07.303Z,34.20
2017-08-15T08:58:35.615Z,35.30
2017-08-15T09:01:03.122Z,35.30
2017-08-15T09:03:30.684Z,36.20
2017-08-15T09:05:58.190Z,35.50
2017-08-15T09:08:25.705Z,35.50
2017-08-15T09:10:53.213Z,35.60
2017-08-15T09:13:20.755Z,35.40
2017-08-15T09:15:48.288Z,35.00
2017-08-15T09:18:15.999Z,34.80
2017-08-15T09:20:43.572Z,35.10
2017-08-15T09:23:11.188Z,36.40
2017-08-15T09:25:39.504Z,34.00
2017-08-15T09:28:07.028Z,34.00
2017-08-15T09:30:35.311Z,31.80
2017-08-15T09:33:02.816Z,31.70
2017-08-15T09:35:30.564Z,31.20
2017-08-15T09:37:58.121Z,30.50
2017-08-15T09:40:25.771Z,30.40
2017-08-15T09:42:53.284Z,30.50
2017-08-15T09:45:20.876Z,31.20
2017-08-15T09:47:48.390Z,31.50
2017-08-15T09:50:15.889Z,32.40
2017-08-15T09:52:43.492Z,33.10
2017-08-15T09:55:10.991Z,34.60
2017-08-15T09:57:38.492Z,35.40
2017-08-15T10:00:06.061Z,35.70
2017-08-15T10:02:34.566Z,36.80
2017-08-15T10:05:02.077Z,37.00
2017-08-15T10:07:29.619Z,38.20
2017-08-15T10:09:57.163Z,37.50
2017-08-15T10:12:25.920Z,37.90
2017-08-15T10:14:53.528Z,36.30
2017-08-15T10:17:21.115Z,36.10
2017-08-15T10:19:48.650Z,36.30
2017-08-15T10:22:16.166Z,36.30
2017-08-15T10:24:43.676Z,36.50
2017-08-15T10:27:11.200Z,36.50
2017-08-15T10:29:38.732Z,35.50
2017-08-15T10:32:06.291Z,35.00
2017-08-15T10:34:33.801Z,35.10
2017-08-15T10:37:01.316Z,35.40
2017-08-15T10:39:28.823Z,35.90
2017-08-15T10:41:56.348Z,36.30
2017-08-15T10:44:23.881Z,36.90
2017-08-15T10:46:51.428Z,37.60
2017-08-15T10:49:18.997Z,38.30
2017-08-15T10:51:46.538Z,39.10
2017-08-15T10:54:14.076Z,39.00
2017-08-15T10:56:41.595Z,39.50
2017-08-15T10:59:09.089Z,40.80
2017-08-15T11:01:36.620Z,39.10
2017-08-15T11:04:04.165Z,38.90
2017-08-15T11:06:31.691Z,39.30
2017-08-15T11:08:59.201Z,39.40
2017-08-15T11:11:30.676Z,39.50
2017-08-15T11:13:58.180Z,39.30
2017-08-15T11:16:25.703Z,39.20
2017-08-15T11:18:53.223Z,39.30
2017-08-15T11:21:21.656Z,40.00
2017-08-15T11:23:49.242Z,40.30
2017-08-15T11:26:16.760Z,40.60
2017-08-15T11:28:44.264Z,40.10
2017-08-15T11:31:11.775Z,40.10
2017-08-15T11:33:39.287Z,39.50
2017-08-15T11:36:06.787Z,40.80
2017-08-15T11:38:34.308Z,39.70
2017-08-15T11:41:05.675Z,39.20
2017-08-15T11:43:33.698Z,39.60
2017-08-15T11:46:01.216Z,39.60
2017-08-15T11:48:28.776Z,40.20
2017-08-15T11:50:56.274Z,39.70
2017-08-15T11:53:23.767Z,40.60
2017-08-15T11:55:51.296Z,39.60
2017-08-15T11:58:18.806Z,39.90
2017-08-15T12:00:46.344Z,39.90
2017-08-15T12:03:13.873Z,39.20
2017-08-15T12:05:41.431Z,38.90
2017-08-15T12:08:09.005Z,38.30
2017-08-15T12:10:37.305Z,38.50
2017-08-15T12:13:08.568Z,38.50
2017-08-15T12:15:36.071Z,37.80
2017-08-15T12:18:03.590Z,38.30
2017-08-15T12:20:31.146Z,38.50
2017-08-15T12:22:58.716Z,38.70
2017-08-15T12:25:26.332Z,38.80
2017-08-15T12:27:53.839Z,39.40
2017-08-15T12:30:22.652Z,39.30
2017-08-15T12:32:50.151Z,39.50
2017-08-15T12:35:17.669Z,38.70
2017-08-15T12:40:35.592Z,39.60
2017-08-15T12:43:03.101Z,40.10
2017-08-15T12:45:30.599Z,40.00
2017-08-15T12:47:58.123Z,39.40
2017-08-15T12:50:25.712Z,38.80
2017-08-15T12:52:53.295Z,38.80
2017-08-15T12:55:20.800Z,37.80
2017-08-15T12:57:48.300Z,37.10
2017-08-15T13:00:15.809Z,36.50
2017-08-15T13:02:43.306Z,36.60
2017-08-15T13:05:10.932Z,36.20
2017-08-15T13:07:38.436Z,36.20
2017-08-15T13:10:05.952Z,36.10
2017-08-15T13:12:33.512Z,35.70
2017-08-15T13:15:01.011Z,35.40
2017-08-15T13:17:28.532Z,35.20
2017-08-15T13:19:56.030Z,35.30
2017-08-15T13:22:23.621Z,35.00
2017-08-15T13:24:51.200Z,35.10
2017-08-15T13:27:18.715Z,35.20
2017-08-15T13:29:51.011Z,34.90
2017-08-15T13:32:18.517Z,34.60
2017-08-15T13:34:46.841Z,34.60
2017-08-15T13:37:14.366Z,34.50
2017-08-15T13:39:42.668Z,34.00
2017-08-15T13:42:10.275Z,34.00
2017-08-15T13:44:38.576Z,33.90
2017-08-15T13:47:07.117Z,34.40
2017-08-15T13:49:34.652Z,34.40
2017-08-15T13:52:02.184Z,34.10
2017-08-15T13:54:30.859Z,33.60
2017-08-15T13:56:59.146Z,33.70
2017-08-15T13:59:26.656Z,33.70
2017-08-15T14:01:54.193Z,33.70
2017-08-15T14:04:21.731Z,33.70
2017-08-15T14:06:49.234Z,33.80
2017-08-15T14:09:17.728Z,33.90
2017-08-15T14:11:45.239Z,33.60
2017-08-15T14:14:12.760Z,33.30
2017-08-15T14:16:40.324Z,33.20
2017-08-15T14:19:07.868Z,33.40
2017-08-15T14:21:35.593Z,33.20
2017-08-15T14:24:03.102Z,33.20
2017-08-15T14:26:30.607Z,33.00
2017-08-15T14:28:58.143Z,33.00
2017-08-15T14:31:26.469Z,32.90
2017-08-15T14:33:53.972Z,32.50
2017-08-15T14:36:21.532Z,32.30
2017-08-15T14:38:49.027Z,32.50
2017-08-15T14:41:16.575Z,32.40
2017-08-15T14:43:47.948Z,32.70
2017-08-15T14:46:15.525Z,32.70
2017-08-15T14:48:43.047Z,32.90
2017-08-15T14:51:10.677Z,32.80
2017-08-15T14:53:38.196Z,32.90
2017-08-15T14:56:05.708Z,32.70
2017-08-15T14:58:33.536Z,32.50
2017-08-15T15:01:01.053Z,32.40
2017-08-15T15:03:28.684Z,32.10
2017-08-15T15:05:56.288Z,32.20
2017-08-15T15:08:23.842Z,32.10
2017-08-15T15:10:51.347Z,32.00
2017-08-15T15:13:18.858Z,31.90
2017-08-15T15:15:46.666Z,31.70
2017-08-15T15:18:14.223Z,31.60
2017-08-15T15:20:42.371Z,31.40
2017-08-15T15:23:10.503Z,31.20
2017-08-15T15:25:38.040Z,31.30
2017-08-15T15:28:05.556Z,31.30
2017-08-15T15:30:33.118Z,31.20
2017-08-15T15:33:00.620Z,31.10
2017-08-15T15:35:28.263Z,31.00
2017-08-15T15:37:55.843Z,31.00
2017-08-15T15:40:24.337Z,30.90
2017-08-15T15:42:51.853Z,30.90
2017-08-15T15:45:19.388Z,30.80
2017-08-15T15:47:47.661Z,30.40
2017-08-15T15:50:15.183Z,30.30
2017-08-15T15:52:42.699Z,30.20
2017-08-15T15:55:10.996Z,30.10
2017-08-15T15:57:38.504Z,30.00
2017-08-15T16:00:06.838Z,29.60
2017-08-15T16:02:34.350Z,29.50
2017-08-15T16:05:01.928Z,29.50
2017-08-15T16:07:29.524Z,29.50
2017-08-15T16:09:57.080Z,29.20
2017-08-15T16:12:25.280Z,29.10
2017-08-15T16:14:52.836Z,28.90
2017-08-15T16:17:20.387Z,28.80
2017-08-15T16:19:47.900Z,28.80
2017-08-15T16:22:15.416Z,28.80
2017-08-15T16:24:42.911Z,28.70
2017-08-15T16:27:10.500Z,28.70
2017-08-15T16:29:38.157Z,28.70
2017-08-15T16:32:06.508Z,28.70
2017-08-15T16:34:34.019Z,28.70
2017-08-15T16:37:01.614Z,28.60
2017-08-15T16:39:29.143Z,28.40
2017-08-15T16:41:56.699Z,28.10
2017-08-15T16:44:24.222Z,27.90
2017-08-15T16:46:52.557Z,27.60
2017-08-15T16:49:20.092Z,27.60
2017-08-15T16:51:47.625Z,27.70
2017-08-15T16:54:15.187Z,27.80
2017-08-15T16:56:43.593Z,27.90
2017-08-15T16:59:11.128Z,27.90
2017-08-15T17:01:42.823Z,28.00
2017-08-15T17:04:10.619Z,28.00
2017-08-15T17:06:38.144Z,27.80
2017-08-15T17:09:05.703Z,27.70
2017-08-15T17:11:33.231Z,27.60
2017-08-15T17:14:00.757Z,27.60
2017-08-15T17:16:28.284Z,27.60
2017-08-15T17:18:55.799Z,27.50
2017-08-15T17:21:23.318Z,27.40
2017-08-15T17:23:50.849Z,27.30
2017-08-15T17:26:18.380Z,27.10
2017-08-15T17:28:46.679Z,27.00
2017-08-15T17:31:14.184Z,27.00
2017-08-15T17:33:41.686Z,26.90
2017-08-15T17:36:09.219Z,26.90
2017-08-15T17:38:36.758Z,26.70
2017-08-15T17:41:04.272Z,26.50
2017-08-15T17:43:31.772Z,26.50
2017-08-15T17:45:59.323Z,26.40
2017-08-15T17:48:27.905Z,26.20
2017-08-15T17:50:55.404Z,26.00
2017-08-15T17:53:22.925Z,25.80
2017-08-15T17:55:50.434Z,25.70
2017-08-15T17:58:17.948Z,25.50
2017-08-15T18:00:45.460Z,25.40
2017-08-15T18:03:13.006Z,25.30
2017-08-15T18:05:40.552Z,25.30
2017-08-15T18:08:08.073Z,25.30
2017-08-15T18:10:35.599Z,25.30
2017-08-15T18:13:03.132Z,25.20
2017-08-15T18:15:30.652Z,25.20
2017-08-15T18:17:58.160Z,25.00
2017-08-15T18:20:29.468Z,24.90
2017-08-15T18:22:56.983Z,24.90
2017-08-15T18:25:25.307Z,24.70
2017-08-15T18:27:52.826Z,24.60
2017-08-15T18:30:21.092Z,24.50
2017-08-15T18:32:48.607Z,24.40
2017-08-15T18:35:16.138Z,24.40
2017-08-15T18:37:43.639Z,24.40
2017-08-15T18:40:11.188Z,24.40
2017-08-15T18:42:38.688Z,24.30
2017-08-15T18:45:06.233Z,24.20
2017-08-15T18:47:37.133Z,24.30
2017-08-15T18:50:04.648Z,24.20
2017-08-15T18:52:32.172Z,24.10
2017-08-15T18:54:59.688Z,24.00
2017-08-15T18:57:27.230Z,24.00
2017-08-15T18:59:55.953Z,23.80
2017-08-15T19:02:23.475Z,23.80
2017-08-15T19:04:50.985Z,23.80
2017-08-15T19:07:18.539Z,23.70
2017-08-15T19:09:46.039Z,23.60
2017-08-15T19:12:13.708Z,23.60
2017-08-15T19:14:41.300Z,23.60
2017-08-15T19:17:08.848Z,23.60
2017-08-15T19:19:36.360Z,23.70
2017-08-15T19:22:03.880Z,23.70
2017-08-15T19:24:31.400Z,23.70
2017-08-15T19:26:58.907Z,23.70
2017-08-15T19:29:26.428Z,23.70
2017-08-15T19:31:53.945Z,23.70
2017-08-15T19:34:21.513Z,23.80
2017-08-15T19:36:49.031Z,23.90
2017-08-15T19:39:17.337Z,24.00
2017-08-15T19:41:44.889Z,23.90
2017-08-15T19:44:13.129Z,23.90
2017-08-15T19:46:40.689Z,22.90
2017-08-15T19:49:08.975Z,22.00
2017-08-15T19:51:36.527Z,21.90
2017-08-15T19:54:04.055Z,21.90
2017-08-15T19:56:31.587Z,21.80
2017-08-15T19:59:00.023Z,21.60
2017-08-15T20:01:27.577Z,21.40
2017-08-15T20:03:55.080Z,21.20
2017-08-15T20:06:22.605Z,21.20
2017-08-15T20:08:50.476Z,21.10
2017-08-15T20:11:17.971Z,21.20
2017-08-15T20:13:45.490Z,21.20
2017-08-15T20:16:13.835Z,21.30
2017-08-15T20:18:41.333Z,21.20
2017-08-15T20:21:08.852Z,21.30
2017-08-15T20:23:39.614Z,21.40
2017-08-15T20:26:07.120Z,21.40
2017-08-15T20:28:34.663Z,21.50
2017-08-15T20:31:02.258Z,21.60
2017-08-15T20:33:29.758Z,21.70
2017-08-15T20:35:57.270Z,21.70
2017-08-15T20:38:24.800Z,21.60
2017-08-15T20:40:52.573Z,21.40
2017-08-15T20:43:20.140Z,21.40
2017-08-15T20:45:47.853Z,21.40
2017-08-15T20:48:15.415Z,21.30
2017-08-15T20:50:46.970Z,21.30
2017-08-15T20:53:14.570Z,21.30
2017-08-15T20:55:42.137Z,21.30
2017-08-15T20:58:10.087Z,21.30
2017-08-15T21:00:37.609Z,21.30
2017-08-15T21:03:05.110Z,21.30
2017-08-15T21:05:33.405Z,21.20
2017-08-15T21:08:00.931Z,21.10
2017-08-15T21:10:28.577Z,21.10
2017-08-15T21:12:56.531Z,21.10
2017-08-15T21:15:24.036Z,21.10
2017-08-15T21:17:51.591Z,21.10
2017-08-15T21:20:19.105Z,20.90
2017-08-15T21:22:46.641Z,20.90
2017-08-15T21:25:14.196Z,20.80
2017-08-15T21:27:41.701Z,20.70
2017-08-15T21:30:09.201Z,20.70
2017-08-15T21:32:36.743Z,20.70
2017-08-15T21:35:05.195Z,20.60
2017-08-15T21:37:32.710Z,20.60
2017-08-15T21:40:00.279Z,20.60
2017-08-15T21:42:27.760Z,20.50
2017-08-15T21:44:55.268Z,20.50
2017-08-15T21:47:23.209Z,20.50
2017-08-15T21:49:50.684Z,20.50
2017-08-15T21:52:19.057Z,20.40
2017-08-15T21:54:46.555Z,20.40
2017-08-15T21:57:14.094Z,20.50
2017-08-15T21:59:41.627Z,20.60
2017-08-15T22:02:14.677Z,20.50
2017-08-15T22:04:42.185Z,20.40
2017-08-15T22:07:10.493Z,20.40
2017-08-15T22:09:39.373Z,20.40
2017-08-15T22:12:07.346Z,20.30
2017-08-15T22:14:34.863Z,20.20
2017-08-15T22:17:02.376Z,20.30
2017-08-15T22:19:29.951Z,20.30
2017-08-15T22:22:04.927Z,20.30
2017-08-15T22:24:32.432Z,20.30
2017-08-15T22:27:00.760Z,20.30
2017-08-15T22:29:28.279Z,20.30
2017-08-15T22:31:55.788Z,20.20
2017-08-15T22:34:23.341Z,20.20
2017-08-15T22:36:50.854Z,20.10
2017-08-15T22:39:21.738Z,20.10
2017-08-15T22:41:49.253Z,20.00
2017-08-15T22:44:17.526Z,20.00
2017-08-15T22:46:45.052Z,20.00
2017-08-15T22:49:13.485Z,20.10
2017-08-15T22:51:40.996Z,20.10
2017-08-15T22:54:10.749Z,20.00
2017-08-15T22:56:40.075Z,20.00
2017-08-15T22:59:08.019Z,20.00
2017-08-15T23:01:35.540Z,20.00
2017-08-15T23:04:03.035Z,20.00
2017-08-15T23:06:30.599Z,20.10
2017-08-15T23:08:58.107Z,20.10
2017-08-15T23:11:25.619Z,20.10
2017-08-15T23:13:53.186Z,20.10
2017-08-15T23:16:22.450Z,20.00
2017-08-15T23:18:50.000Z,19.90
2017-08-15T23:21:17.555Z,19.90
2017-08-15T23:23:45.096Z,19.90
2017-08-15T23:26:12.604Z,19.90
2017-08-15T23:28:40.145Z,19.90
2017-08-15T23:31:07.712Z,19.90
2017-08-15T23:33:35.288Z,20.00
2017-08-15T23:36:03.195Z,20.10
2017-08-15T23:38:35.147Z,20.10
2017-08-15T23:41:02.696Z,20.10
2017-08-15T23:43:30.200Z,20.20
2017-08-15T23:45:57.709Z,20.20
2017-08-15T23:48:25.219Z,20.20
2017-08-15T23:50:52.806Z,20.20
2017-08-15T23:53:20.404Z,20.20
2017-08-15T23:55:47.912Z,20.10
2017-08-15T23:58:15.452Z,20.10
